sensor_id;sensor_type;location;lat;lon;timestamp;pressure;altitude;pressure_sealevel;temperature
19102;BMP280;9683;49.028;12.064;2022-08-14T00:01:10;96997.31;;;23.10
19102;BMP280;9683;49.028;12.064;2022-08-14T00:03:37;96999.22;;;23.09
19102;BMP280;9683;49.028;12.064;2022-08-14T00:06:04;96997.00;;;23.11
19102;BMP280;9683;49.028;12.064;2022-08-14T00:08:31;96993.28;;;23.07
19102;BMP280;9683;49.028;12.064;2022-08-14T00:10:57;96992.63;;;23.02
19102;BMP280;9683;49.028;12.064;2022-08-14T00:13:26;96989.41;;;23.00
19102;BMP280;9683;49.028;12.064;2022-08-14T00:15:55;96986.50;;;22.96
19102;BMP280;9683;49.028;12.064;2022-08-14T00:18:26;96988.94;;;22.98
19102;BMP280;9683;49.028;12.064;2022-08-14T00:20:54;96986.81;;;22.95
19102;BMP280;9683;49.028;12.064;2022-08-14T00:23:21;96983.50;;;22.98
19102;BMP280;9683;49.028;12.064;2022-08-14T00:25:49;96979.66;;;22.99
19102;BMP280;9683;49.028;12.064;2022-08-14T00:28:16;96974.84;;;22.96
19102;BMP280;9683;49.028;12.064;2022-08-14T00:30:44;96973.22;;;22.95
19102;BMP280;9683;49.028;12.064;2022-08-14T00:33:11;96967.63;;;22.91
19102;BMP280;9683;49.028;12.064;2022-08-14T00:35:39;96972.88;;;22.88
19102;BMP280;9683;49.028;12.064;2022-08-14T00:38:06;96973.78;;;22.83
19102;BMP280;9683;49.028;12.064;2022-08-14T00:40:32;96973.72;;;22.74
19102;BMP280;9683;49.028;12.064;2022-08-14T00:43:00;96975.06;;;22.63
19102;BMP280;9683;49.028;12.064;2022-08-14T00:45:27;96982.94;;;22.51
19102;BMP280;9683;49.028;12.064;2022-08-14T00:47:54;96978.53;;;22.42
19102;BMP280;9683;49.028;12.064;2022-08-14T00:50:21;96974.31;;;22.35
19102;BMP280;9683;49.028;12.064;2022-08-14T00:52:51;96974.47;;;22.30
19102;BMP280;9683;49.028;12.064;2022-08-14T00:55:19;96971.25;;;22.28
19102;BMP280;9683;49.028;12.064;2022-08-14T00:57:47;96970.13;;;22.29
19102;BMP280;9683;49.028;12.064;2022-08-14T01:00:35;96965.81;;;22.28
19102;BMP280;9683;49.028;12.064;2022-08-14T01:03:03;96975.38;;;22.26
19102;BMP280;9683;49.028;12.064;2022-08-14T01:05:30;96963.81;;;22.20
19102;BMP280;9683;49.028;12.064;2022-08-14T01:07:59;96962.03;;;22.16
19102;BMP280;9683;49.028;12.064;2022-08-14T01:10:27;96962.44;;;22.09
19102;BMP280;9683;49.028;12.064;2022-08-14T01:13:16;96966.06;;;22.05
19102;BMP280;9683;49.028;12.064;2022-08-14T01:15:43;96962.56;;;22.04
19102;BMP280;9683;49.028;12.064;2022-08-14T01:18:10;96959.34;;;22.02
19102;BMP280;9683;49.028;12.064;2022-08-14T01:20:56;96952.91;;;21.98
19102;BMP280;9683;49.028;12.064;2022-08-14T01:23:39;96955.63;;;21.98
19102;BMP280;9683;49.028;12.064;2022-08-14T01:26:06;96955.03;;;22.01
19102;BMP280;9683;49.028;12.064;2022-08-14T01:28:34;96959.66;;;22.01
19102;BMP280;9683;49.028;12.064;2022-08-14T01:31:03;96954.34;;;21.96
19102;BMP280;9683;49.028;12.064;2022-08-14T01:33:31;96958.53;;;21.88
19102;BMP280;9683;49.028;12.064;2022-08-14T01:35:58;96951.59;;;21.82
19102;BMP280;9683;49.028;12.064;2022-08-14T01:38:26;96945.28;;;21.73
19102;BMP280;9683;49.028;12.064;2022-08-14T01:41:01;96954.50;;;21.72
19102;BMP280;9683;49.028;12.064;2022-08-14T01:43:28;96949.88;;;21.72
19102;BMP280;9683;49.028;12.064;2022-08-14T01:45:57;96949.78;;;21.77
19102;BMP280;9683;49.028;12.064;2022-08-14T01:48:25;96949.50;;;21.79
19102;BMP280;9683;49.028;12.064;2022-08-14T01:50:55;96942.75;;;21.76
19102;BMP280;9683;49.028;12.064;2022-08-14T01:53:21;96941.56;;;21.69
19102;BMP280;9683;49.028;12.064;2022-08-14T01:55:49;96945.19;;;21.64
19102;BMP280;9683;49.028;12.064;2022-08-14T01:58:18;96937.75;;;21.56
19102;BMP280;9683;49.028;12.064;2022-08-14T02:00:48;96930.34;;;21.48
19102;BMP280;9683;49.028;12.064;2022-08-14T02:03:18;96921.00;;;21.40
19102;BMP280;9683;49.028;12.064;2022-08-14T02:05:45;96922.31;;;21.43
19102;BMP280;9683;49.028;12.064;2022-08-14T02:08:11;96926.00;;;21.47
19102;BMP280;9683;49.028;12.064;2022-08-14T02:10:39;96914.28;;;21.52
19102;BMP280;9683;49.028;12.064;2022-08-14T02:13:07;96914.59;;;21.50
19102;BMP280;9683;49.028;12.064;2022-08-14T02:15:36;96918.41;;;21.49
19102;BMP280;9683;49.028;12.064;2022-08-14T02:18:05;96913.78;;;21.49
19102;BMP280;9683;49.028;12.064;2022-08-14T02:20:32;96913.78;;;21.49
19102;BMP280;9683;49.028;12.064;2022-08-14T02:22:59;96914.38;;;21.46
19102;BMP280;9683;49.028;12.064;2022-08-14T02:25:26;96907.06;;;21.47
19102;BMP280;9683;49.028;12.064;2022-08-14T02:27:52;96910.88;;;21.46
19102;BMP280;9683;49.028;12.064;2022-08-14T02:30:20;96905.25;;;21.42
19102;BMP280;9683;49.028;12.064;2022-08-14T02:32:50;96895.34;;;21.38
19102;BMP280;9683;49.028;12.064;2022-08-14T02:35:17;96896.53;;;21.32
19102;BMP280;9683;49.028;12.064;2022-08-14T02:37:44;96904.13;;;21.30
19102;BMP280;9683;49.028;12.064;2022-08-14T02:40:11;96901.13;;;21.31
19102;BMP280;9683;49.028;12.064;2022-08-14T02:42:40;96904.47;;;21.28
19102;BMP280;9683;49.028;12.064;2022-08-14T02:45:07;96903.66;;;21.28
19102;BMP280;9683;49.028;12.064;2022-08-14T02:47:34;96912.66;;;21.23
19102;BMP280;9683;49.028;12.064;2022-08-14T02:50:04;96907.78;;;21.25
19102;BMP280;9683;49.028;12.064;2022-08-14T02:52:31;96912.16;;;21.21
19102;BMP280;9683;49.028;12.064;2022-08-14T02:54:59;96910.66;;;21.15
19102;BMP280;9683;49.028;12.064;2022-08-14T02:57:27;96906.09;;;21.11
19102;BMP280;9683;49.028;12.064;2022-08-14T02:59:53;96898.41;;;21.04
19102;BMP280;9683;49.028;12.064;2022-08-14T03:02:21;96904.59;;;21.04
19102;BMP280;9683;49.028;12.064;2022-08-14T03:04:48;96905.09;;;21.07
19102;BMP280;9683;49.028;12.064;2022-08-14T03:07:16;96895.56;;;21.09
19102;BMP280;9683;49.028;12.064;2022-08-14T03:09:43;96895.06;;;21.07
19102;BMP280;9683;49.028;12.064;2022-08-14T03:12:10;96886.97;;;21.07
19102;BMP280;9683;49.028;12.064;2022-08-14T03:14:37;96890.97;;;21.10
19102;BMP280;9683;49.028;12.064;2022-08-14T03:17:09;96886.34;;;21.10
19102;BMP280;9683;49.028;12.064;2022-08-14T03:19:38;96893.38;;;21.11
19102;BMP280;9683;49.028;12.064;2022-08-14T03:22:05;96887.72;;;21.13
19102;BMP280;9683;49.028;12.064;2022-08-14T03:24:33;96885.88;;;21.08
19102;BMP280;9683;49.028;12.064;2022-08-14T03:27:01;96870.50;;;20.90
19102;BMP280;9683;49.028;12.064;2022-08-14T03:29:28;96878.91;;;20.88
19102;BMP280;9683;49.028;12.064;2022-08-14T03:31:54;96871.31;;;20.90
19102;BMP280;9683;49.028;12.064;2022-08-14T03:34:21;96873.41;;;20.93
19102;BMP280;9683;49.028;12.064;2022-08-14T03:36:48;96877.13;;;20.97
19102;BMP280;9683;49.028;12.064;2022-08-14T03:39:21;96869.81;;;20.98
19102;BMP280;9683;49.028;12.064;2022-08-14T03:41:51;96872.72;;;21.01
19102;BMP280;9683;49.028;12.064;2022-08-14T03:44:18;96872.50;;;20.98
19102;BMP280;9683;49.028;12.064;2022-08-14T03:46:45;96860.16;;;20.92
19102;BMP280;9683;49.028;12.064;2022-08-14T03:49:12;96862.97;;;20.87
19102;BMP280;9683;49.028;12.064;2022-08-14T03:51:40;96866.59;;;20.82
19102;BMP280;9683;49.028;12.064;2022-08-14T03:54:07;96858.03;;;20.75
19102;BMP280;9683;49.028;12.064;2022-08-14T03:56:37;96862.84;;;20.65
19102;BMP280;9683;49.028;12.064;2022-08-14T03:59:10;96855.88;;;20.58
19102;BMP280;9683;49.028;12.064;2022-08-14T04:01:38;96848.66;;;20.54
19102;BMP280;9683;49.028;12.064;2022-08-14T04:04:06;96847.88;;;20.53
19102;BMP280;9683;49.028;12.064;2022-08-14T04:06:34;96844.06;;;20.54
19102;BMP280;9683;49.028;12.064;2022-08-14T04:09:01;96838.66;;;20.54
19102;BMP280;9683;49.028;12.064;2022-08-14T04:11:28;96836.25;;;20.53
19102;BMP280;9683;49.028;12.064;2022-08-14T04:13:55;96833.03;;;20.51
19102;BMP280;9683;49.028;12.064;2022-08-14T04:16:23;96827.94;;;20.49
19102;BMP280;9683;49.028;12.064;2022-08-14T04:18:52;96826.81;;;20.50
19102;BMP280;9683;49.028;12.064;2022-08-14T04:21:21;96828.44;;;20.51
19102;BMP280;9683;49.028;12.064;2022-08-14T04:23:49;96836.06;;;20.49
19102;BMP280;9683;49.028;12.064;2022-08-14T04:26:17;96839.84;;;20.48
19102;BMP280;9683;49.028;12.064;2022-08-14T04:28:47;96843.94;;;20.46
19102;BMP280;9683;49.028;12.064;2022-08-14T04:31:15;96838.94;;;20.39
19102;BMP280;9683;49.028;12.064;2022-08-14T04:33:43;96833.50;;;20.39
19102;BMP280;9683;49.028;12.064;2022-08-14T04:36:10;96828.91;;;20.40
19102;BMP280;9683;49.028;12.064;2022-08-14T04:38:37;96833.44;;;20.44
19102;BMP280;9683;49.028;12.064;2022-08-14T04:41:21;96834.44;;;20.48
19102;BMP280;9683;49.028;12.064;2022-08-14T04:44:06;96831.66;;;20.53
19102;BMP280;9683;49.028;12.064;2022-08-14T04:46:33;96828.06;;;20.58
19102;BMP280;9683;49.028;12.064;2022-08-14T04:49:02;96824.75;;;20.61
19102;BMP280;9683;49.028;12.064;2022-08-14T04:51:28;96835.25;;;20.63
19102;BMP280;9683;49.028;12.064;2022-08-14T04:53:57;96831.19;;;20.65
19102;BMP280;9683;49.028;12.064;2022-08-14T04:56:25;96831.97;;;20.66
19102;BMP280;9683;49.028;12.064;2022-08-14T04:58:54;96823.06;;;20.65
19102;BMP280;9683;49.028;12.064;2022-08-14T05:01:24;96834.09;;;20.69
19102;BMP280;9683;49.028;12.064;2022-08-14T05:03:51;96820.47;;;20.74
19102;BMP280;9683;49.028;12.064;2022-08-14T05:06:20;96821.97;;;20.80
19102;BMP280;9683;49.028;12.064;2022-08-14T05:08:47;96822.97;;;20.84
19102;BMP280;9683;49.028;12.064;2022-08-14T05:11:14;96815.84;;;20.88
19102;BMP280;9683;49.028;12.064;2022-08-14T05:13:43;96823.06;;;20.92
19102;BMP280;9683;49.028;12.064;2022-08-14T05:16:10;96816.56;;;20.93
19102;BMP280;9683;49.028;12.064;2022-08-14T05:18:39;96831.41;;;20.96
19102;BMP280;9683;49.028;12.064;2022-08-14T05:21:07;96822.38;;;21.00
19102;BMP280;9683;49.028;12.064;2022-08-14T05:23:37;96816.06;;;21.05
19102;BMP280;9683;49.028;12.064;2022-08-14T05:26:05;96816.88;;;21.05
19102;BMP280;9683;49.028;12.064;2022-08-14T05:28:38;96817.38;;;21.08
19102;BMP280;9683;49.028;12.064;2022-08-14T05:31:06;96812.16;;;21.11
19102;BMP280;9683;49.028;12.064;2022-08-14T05:33:34;96810.41;;;21.20
19102;BMP280;9683;49.028;12.064;2022-08-14T05:36:04;96817.00;;;21.28
19102;BMP280;9683;49.028;12.064;2022-08-14T05:38:32;96812.47;;;21.37
19102;BMP280;9683;49.028;12.064;2022-08-14T05:41:02;96799.41;;;21.53
19102;BMP280;9683;49.028;12.064;2022-08-14T05:43:29;96796.97;;;21.65
19102;BMP280;9683;49.028;12.064;2022-08-14T05:45:56;96798.03;;;21.77
19102;BMP280;9683;49.028;12.064;2022-08-14T05:48:24;96787.16;;;21.91
19102;BMP280;9683;49.028;12.064;2022-08-14T05:50:51;96788.84;;;22.01
19102;BMP280;9683;49.028;12.064;2022-08-14T05:53:19;96788.78;;;22.14
19102;BMP280;9683;49.028;12.064;2022-08-14T05:55:46;96791.06;;;22.21
19102;BMP280;9683;49.028;12.064;2022-08-14T05:58:14;96796.38;;;22.26
19102;BMP280;9683;49.028;12.064;2022-08-14T06:00:43;96796.84;;;22.28
19102;BMP280;9683;49.028;12.064;2022-08-14T06:03:12;96794.94;;;22.28
19102;BMP280;9683;49.028;12.064;2022-08-14T06:05:41;96782.19;;;22.29
19102;BMP280;9683;49.028;12.064;2022-08-14T06:08:14;96783.16;;;22.33
19102;BMP280;9683;49.028;12.064;2022-08-14T06:10:41;96779.34;;;22.34
19102;BMP280;9683;49.028;12.064;2022-08-14T06:13:08;96781.44;;;22.37
19102;BMP280;9683;49.028;12.064;2022-08-14T06:15:36;96780.50;;;22.42
19102;BMP280;9683;49.028;12.064;2022-08-14T06:18:03;96775.56;;;22.44
19102;BMP280;9683;49.028;12.064;2022-08-14T06:20:30;96776.84;;;22.46
19102;BMP280;9683;49.028;12.064;2022-08-14T06:22:57;96776.72;;;22.51
19102;BMP280;9683;49.028;12.064;2022-08-14T06:25:25;96779.28;;;22.56
19102;BMP280;9683;49.028;12.064;2022-08-14T06:27:52;96781.69;;;22.58
19102;BMP280;9683;49.028;12.064;2022-08-14T06:30:21;96776.94;;;22.63
19102;BMP280;9683;49.028;12.064;2022-08-14T06:32:49;96784.97;;;22.68
19102;BMP280;9683;49.028;12.064;2022-08-14T06:35:16;96787.06;;;22.71
19102;BMP280;9683;49.028;12.064;2022-08-14T06:37:45;96784.22;;;22.76
19102;BMP280;9683;49.028;12.064;2022-08-14T06:40:15;96786.31;;;22.79
19102;BMP280;9683;49.028;12.064;2022-08-14T06:42:42;96779.44;;;22.82
19102;BMP280;9683;49.028;12.064;2022-08-14T06:45:10;96781.22;;;22.87
19102;BMP280;9683;49.028;12.064;2022-08-14T06:47:39;96779.97;;;22.93
19102;BMP280;9683;49.028;12.064;2022-08-14T06:50:09;96783.31;;;22.98
19102;BMP280;9683;49.028;12.064;2022-08-14T06:52:36;96783.03;;;23.00
19102;BMP280;9683;49.028;12.064;2022-08-14T06:55:04;96786.25;;;23.02
19102;BMP280;9683;49.028;12.064;2022-08-14T06:57:34;96788.63;;;23.03
19102;BMP280;9683;49.028;12.064;2022-08-14T07:00:03;96791.34;;;23.03
19102;BMP280;9683;49.028;12.064;2022-08-14T07:02:30;96803.00;;;23.04
19102;BMP280;9683;49.028;12.064;2022-08-14T07:05:15;96802.38;;;23.07
19102;BMP280;9683;49.028;12.064;2022-08-14T07:07:59;96798.53;;;23.08
19102;BMP280;9683;49.028;12.064;2022-08-14T07:10:26;96796.16;;;23.06
19102;BMP280;9683;49.028;12.064;2022-08-14T07:12:53;96793.75;;;23.05
19102;BMP280;9683;49.028;12.064;2022-08-14T07:15:19;96792.47;;;23.11
19102;BMP280;9683;49.028;12.064;2022-08-14T07:17:47;96792.84;;;23.18
19102;BMP280;9683;49.028;12.064;2022-08-14T07:20:16;96790.28;;;23.21
19102;BMP280;9683;49.028;12.064;2022-08-14T07:22:45;96784.53;;;23.23
19102;BMP280;9683;49.028;12.064;2022-08-14T07:25:12;96784.38;;;23.28
19102;BMP280;9683;49.028;12.064;2022-08-14T07:27:38;96782.63;;;23.32
19102;BMP280;9683;49.028;12.064;2022-08-14T07:30:06;96782.16;;;23.39
19102;BMP280;9683;49.028;12.064;2022-08-14T07:32:34;96792.72;;;23.40
19102;BMP280;9683;49.028;12.064;2022-08-14T07:35:00;96781.72;;;23.45
19102;BMP280;9683;49.028;12.064;2022-08-14T07:37:28;96787.50;;;23.52
19102;BMP280;9683;49.028;12.064;2022-08-14T07:39:55;96782.69;;;23.58
19102;BMP280;9683;49.028;12.064;2022-08-14T07:42:22;96778.06;;;23.67
19102;BMP280;9683;49.028;12.064;2022-08-14T07:44:49;96780.81;;;23.75
19102;BMP280;9683;49.028;12.064;2022-08-14T07:47:15;96776.47;;;23.83
19102;BMP280;9683;49.028;12.064;2022-08-14T07:49:48;96773.28;;;23.90
19102;BMP280;9683;49.028;12.064;2022-08-14T07:52:16;96771.19;;;23.95
19102;BMP280;9683;49.028;12.064;2022-08-14T07:54:44;96771.84;;;24.01
19102;BMP280;9683;49.028;12.064;2022-08-14T07:57:11;96767.19;;;24.10
19102;BMP280;9683;49.028;12.064;2022-08-14T07:59:38;96774.25;;;24.19
19102;BMP280;9683;49.028;12.064;2022-08-14T08:02:06;96764.47;;;24.27
19102;BMP280;9683;49.028;12.064;2022-08-14T08:04:36;96766.53;;;24.30
19102;BMP280;9683;49.028;12.064;2022-08-14T08:07:04;96764.78;;;24.34
19102;BMP280;9683;49.028;12.064;2022-08-14T08:09:31;96765.41;;;24.40
19102;BMP280;9683;49.028;12.064;2022-08-14T08:12:02;96764.28;;;24.49
19102;BMP280;9683;49.028;12.064;2022-08-14T08:14:31;96767.44;;;24.51
19102;BMP280;9683;49.028;12.064;2022-08-14T08:16:59;96758.31;;;24.56
19102;BMP280;9683;49.028;12.064;2022-08-14T08:19:26;96761.97;;;24.60
19102;BMP280;9683;49.028;12.064;2022-08-14T08:21:52;96756.69;;;24.63
19102;BMP280;9683;49.028;12.064;2022-08-14T08:24:19;96758.75;;;24.66
19102;BMP280;9683;49.028;12.064;2022-08-14T08:26:46;96760.16;;;24.73
19102;BMP280;9683;49.028;12.064;2022-08-14T08:29:19;96756.47;;;24.77
19102;BMP280;9683;49.028;12.064;2022-08-14T08:31:47;96762.53;;;24.83
19102;BMP280;9683;49.028;12.064;2022-08-14T08:34:15;96752.63;;;24.87
19102;BMP280;9683;49.028;12.064;2022-08-14T08:36:42;96755.13;;;24.92
19102;BMP280;9683;49.028;12.064;2022-08-14T08:39:10;96752.91;;;24.94
19102;BMP280;9683;49.028;12.064;2022-08-14T08:41:41;96752.91;;;24.94
19102;BMP280;9683;49.028;12.064;2022-08-14T08:44:08;96749.34;;;25.02
19102;BMP280;9683;49.028;12.064;2022-08-14T08:46:36;96742.59;;;25.08
19102;BMP280;9683;49.028;12.064;2022-08-14T08:49:04;96742.53;;;25.17
19102;BMP280;9683;49.028;12.064;2022-08-14T08:51:33;96754.50;;;25.24
19102;BMP280;9683;49.028;12.064;2022-08-14T08:54:02;96740.69;;;25.29
19102;BMP280;9683;49.028;12.064;2022-08-14T08:56:36;96756.84;;;25.34
19102;BMP280;9683;49.028;12.064;2022-08-14T08:59:17;96745.41;;;25.41
19102;BMP280;9683;49.028;12.064;2022-08-14T09:01:53;96748.28;;;25.44
19102;BMP280;9683;49.028;12.064;2022-08-14T09:04:20;96740.91;;;25.45
19102;BMP280;9683;49.028;12.064;2022-08-14T09:06:48;96741.50;;;25.50
19102;BMP280;9683;49.028;12.064;2022-08-14T09:09:22;96735.06;;;25.55
19102;BMP280;9683;49.028;12.064;2022-08-14T09:11:50;96730.22;;;25.61
19102;BMP280;9683;49.028;12.064;2022-08-14T09:14:18;96731.63;;;25.67
19102;BMP280;9683;49.028;12.064;2022-08-14T09:16:46;96736.53;;;25.73
19102;BMP280;9683;49.028;12.064;2022-08-14T09:19:15;96739.06;;;25.78
19102;BMP280;9683;49.028;12.064;2022-08-14T09:21:41;96733.28;;;25.80
19102;BMP280;9683;49.028;12.064;2022-08-14T09:24:08;96728.28;;;25.82
19102;BMP280;9683;49.028;12.064;2022-08-14T09:26:36;96730.31;;;25.85
19102;BMP280;9683;49.028;12.064;2022-08-14T09:29:04;96724.22;;;25.88
19102;BMP280;9683;49.028;12.064;2022-08-14T09:31:32;96720.50;;;25.92
19102;BMP280;9683;49.028;12.064;2022-08-14T09:34:09;96728.56;;;26.01
19102;BMP280;9683;49.028;12.064;2022-08-14T09:36:49;96723.38;;;26.08
19102;BMP280;9683;49.028;12.064;2022-08-14T09:39:32;96729.41;;;26.14
19102;BMP280;9683;49.028;12.064;2022-08-14T09:42:15;96729.19;;;26.19
19102;BMP280;9683;49.028;12.064;2022-08-14T09:45:00;96727.91;;;26.25
19102;BMP280;9683;49.028;12.064;2022-08-14T09:47:43;96731.56;;;26.29
19102;BMP280;9683;49.028;12.064;2022-08-14T09:50:22;96723.94;;;26.34
19102;BMP280;9683;49.028;12.064;2022-08-14T09:52:52;96718.25;;;26.39
19102;BMP280;9683;49.028;12.064;2022-08-14T09:55:20;96712.94;;;26.43
19102;BMP280;9683;49.028;12.064;2022-08-14T09:57:49;96704.84;;;26.47
19102;BMP280;9683;49.028;12.064;2022-08-14T10:00:17;96693.25;;;26.50
19102;BMP280;9683;49.028;12.064;2022-08-14T10:02:52;96700.09;;;26.56
19102;BMP280;9683;49.028;12.064;2022-08-14T10:05:28;96691.91;;;26.56
19102;BMP280;9683;49.028;12.064;2022-08-14T10:07:57;96696.09;;;26.65
19102;BMP280;9683;49.028;12.064;2022-08-14T10:10:29;96688.00;;;26.69
19102;BMP280;9683;49.028;12.064;2022-08-14T10:12:56;96693.34;;;26.77
19102;BMP280;9683;49.028;12.064;2022-08-14T10:15:26;96695.88;;;26.82
19102;BMP280;9683;49.028;12.064;2022-08-14T10:18:05;96701.00;;;26.84
19102;BMP280;9683;49.028;12.064;2022-08-14T10:20:35;96690.53;;;26.86
19102;BMP280;9683;49.028;12.064;2022-08-14T10:23:11;96678.59;;;26.90
19102;BMP280;9683;49.028;12.064;2022-08-14T10:25:39;96686.47;;;26.92
19102;BMP280;9683;49.028;12.064;2022-08-14T10:28:08;96682.13;;;26.91
19102;BMP280;9683;49.028;12.064;2022-08-14T10:30:35;96681.44;;;26.94
19102;BMP280;9683;49.028;12.064;2022-08-14T10:33:03;96670.16;;;26.96
19102;BMP280;9683;49.028;12.064;2022-08-14T10:35:39;96660.59;;;27.02
19102;BMP280;9683;49.028;12.064;2022-08-14T10:38:05;96665.72;;;27.03
19102;BMP280;9683;49.028;12.064;2022-08-14T10:40:34;96660.81;;;27.09
19102;BMP280;9683;49.028;12.064;2022-08-14T10:43:00;96664.13;;;27.14
19102;BMP280;9683;49.028;12.064;2022-08-14T10:45:30;96650.19;;;27.19
19102;BMP280;9683;49.028;12.064;2022-08-14T10:47:57;96653.72;;;27.20
19102;BMP280;9683;49.028;12.064;2022-08-14T10:50:29;96656.22;;;27.25
19102;BMP280;9683;49.028;12.064;2022-08-14T10:52:58;96652.09;;;27.31
19102;BMP280;9683;49.028;12.064;2022-08-14T10:55:31;96647.63;;;27.39
19102;BMP280;9683;49.028;12.064;2022-08-14T10:58:05;96641.47;;;27.42
19102;BMP280;9683;49.028;12.064;2022-08-14T11:00:37;96640.75;;;27.45
19102;BMP280;9683;49.028;12.064;2022-08-14T11:03:05;96640.91;;;27.48
19102;BMP280;9683;49.028;12.064;2022-08-14T11:05:41;96633.00;;;27.59
19102;BMP280;9683;49.028;12.064;2022-08-14T11:08:08;96635.03;;;27.62
19102;BMP280;9683;49.028;12.064;2022-08-14T11:10:42;96638.88;;;27.73
19102;BMP280;9683;49.028;12.064;2022-08-14T11:13:15;96642.69;;;27.84
19102;BMP280;9683;49.028;12.064;2022-08-14T11:15:41;96643.66;;;27.92
19102;BMP280;9683;49.028;12.064;2022-08-14T11:18:10;96631.25;;;27.94
19102;BMP280;9683;49.028;12.064;2022-08-14T11:20:38;96622.84;;;28.03
19102;BMP280;9683;49.028;12.064;2022-08-14T11:23:08;96618.69;;;28.09
19102;BMP280;9683;49.028;12.064;2022-08-14T11:25:36;96615.41;;;28.15
19102;BMP280;9683;49.028;12.064;2022-08-14T11:28:04;96610.09;;;28.22
19102;BMP280;9683;49.028;12.064;2022-08-14T11:30:33;96614.94;;;28.29
19102;BMP280;9683;49.028;12.064;2022-08-14T11:33:03;96617.06;;;28.36
19102;BMP280;9683;49.028;12.064;2022-08-14T11:35:30;96620.78;;;28.43
19102;BMP280;9683;49.028;12.064;2022-08-14T11:37:58;96608.84;;;28.51
19102;BMP280;9683;49.028;12.064;2022-08-14T11:40:27;96612.53;;;28.59
19102;BMP280;9683;49.028;12.064;2022-08-14T11:42:56;96608.72;;;28.63
19102;BMP280;9683;49.028;12.064;2022-08-14T11:45:24;96606.84;;;28.67
19102;BMP280;9683;49.028;12.064;2022-08-14T11:47:54;96604.75;;;28.77
19102;BMP280;9683;49.028;12.064;2022-08-14T11:50:23;96604.63;;;28.89
19102;BMP280;9683;49.028;12.064;2022-08-14T11:52:50;96598.69;;;29.02
19102;BMP280;9683;49.028;12.064;2022-08-14T11:55:18;96605.19;;;29.13
19102;BMP280;9683;49.028;12.064;2022-08-14T11:57:45;96602.66;;;29.24
19102;BMP280;9683;49.028;12.064;2022-08-14T12:00:15;96607.66;;;29.38
19102;BMP280;9683;49.028;12.064;2022-08-14T12:02:49;96587.38;;;29.42
19102;BMP280;9683;49.028;12.064;2022-08-14T12:05:32;96592.56;;;29.47
19102;BMP280;9683;49.028;12.064;2022-08-14T12:08:00;96594.69;;;29.54
19102;BMP280;9683;49.028;12.064;2022-08-14T12:10:29;96576.75;;;29.60
19102;BMP280;9683;49.028;12.064;2022-08-14T12:12:57;96570.97;;;29.65
19102;BMP280;9683;49.028;12.064;2022-08-14T12:15:31;96570.69;;;29.70
19102;BMP280;9683;49.028;12.064;2022-08-14T12:17:58;96570.00;;;29.77
19102;BMP280;9683;49.028;12.064;2022-08-14T12:20:31;96569.06;;;29.88
19102;BMP280;9683;49.028;12.064;2022-08-14T12:22:59;96563.72;;;29.95
19102;BMP280;9683;49.028;12.064;2022-08-14T12:25:27;96557.91;;;30.00
19102;BMP280;9683;49.028;12.064;2022-08-14T12:27:55;96554.84;;;30.05
19102;BMP280;9683;49.028;12.064;2022-08-14T12:30:32;96552.94;;;30.10
19102;BMP280;9683;49.028;12.064;2022-08-14T12:33:00;96549.44;;;30.09
19102;BMP280;9683;49.028;12.064;2022-08-14T12:35:40;96536.16;;;30.15
19102;BMP280;9683;49.028;12.064;2022-08-14T12:38:07;96538.84;;;30.11
19102;BMP280;9683;49.028;12.064;2022-08-14T12:40:44;96533.09;;;30.20
19102;BMP280;9683;49.028;12.064;2022-08-14T12:43:11;96537.97;;;30.30
19102;BMP280;9683;49.028;12.064;2022-08-14T12:45:37;96542.56;;;30.45
19102;BMP280;9683;49.028;12.064;2022-08-14T12:48:05;96538.47;;;30.62
19102;BMP280;9683;49.028;12.064;2022-08-14T12:50:40;96533.16;;;30.72
19102;BMP280;9683;49.028;12.064;2022-08-14T12:53:09;96535.28;;;30.86
19102;BMP280;9683;49.028;12.064;2022-08-14T12:55:36;96521.28;;;30.98
19102;BMP280;9683;49.028;12.064;2022-08-14T12:58:04;96516.72;;;31.06
19102;BMP280;9683;49.028;12.064;2022-08-14T13:00:33;96517.44;;;31.03
19102;BMP280;9683;49.028;12.064;2022-08-14T13:03:00;96507.91;;;30.97
19102;BMP280;9683;49.028;12.064;2022-08-14T13:05:31;96506.53;;;31.10
19102;BMP280;9683;49.028;12.064;2022-08-14T13:08:04;96505.06;;;31.19
19102;BMP280;9683;49.028;12.064;2022-08-14T13:10:31;96504.47;;;31.36
19102;BMP280;9683;49.028;12.064;2022-08-14T13:12:59;96504.25;;;31.52
19102;BMP280;9683;49.028;12.064;2022-08-14T13:15:26;96493.00;;;31.64
19102;BMP280;9683;49.028;12.064;2022-08-14T13:17:55;96492.31;;;31.78
19102;BMP280;9683;49.028;12.064;2022-08-14T13:20:24;96486.94;;;31.92
19102;BMP280;9683;49.028;12.064;2022-08-14T13:22:52;96487.44;;;32.05
19102;BMP280;9683;49.028;12.064;2022-08-14T13:25:22;96489.53;;;32.15
19102;BMP280;9683;49.028;12.064;2022-08-14T13:27:51;96485.56;;;32.16
19102;BMP280;9683;49.028;12.064;2022-08-14T13:30:20;96478.56;;;32.25
19102;BMP280;9683;49.028;12.064;2022-08-14T13:32:49;96479.81;;;32.35
19102;BMP280;9683;49.028;12.064;2022-08-14T13:35:17;96480.66;;;32.46
19102;BMP280;9683;49.028;12.064;2022-08-14T13:37:45;96473.97;;;32.47
19102;BMP280;9683;49.028;12.064;2022-08-14T13:40:15;96477.53;;;32.51
19102;BMP280;9683;49.028;12.064;2022-08-14T13:42:45;96469.31;;;32.58
19102;BMP280;9683;49.028;12.064;2022-08-14T13:45:13;96465.81;;;32.61
19102;BMP280;9683;49.028;12.064;2022-08-14T13:47:41;96471.34;;;32.61
19102;BMP280;9683;49.028;12.064;2022-08-14T13:50:10;96463.78;;;32.58
19102;BMP280;9683;49.028;12.064;2022-08-14T13:52:41;96443.28;;;32.52
19102;BMP280;9683;49.028;12.064;2022-08-14T13:55:08;96458.94;;;32.38
19102;BMP280;9683;49.028;12.064;2022-08-14T13:57:39;96447.91;;;32.34
19102;BMP280;9683;49.028;12.064;2022-08-14T14:00:10;96448.25;;;32.29
19102;BMP280;9683;49.028;12.064;2022-08-14T14:02:38;96456.84;;;32.20
19102;BMP280;9683;49.028;12.064;2022-08-14T14:05:07;96450.31;;;31.92
19102;BMP280;9683;49.028;12.064;2022-08-14T14:07:34;96440.78;;;31.78
19102;BMP280;9683;49.028;12.064;2022-08-14T14:10:04;96444.25;;;31.68
19102;BMP280;9683;49.028;12.064;2022-08-14T14:12:33;96433.53;;;31.56
19102;BMP280;9683;49.028;12.064;2022-08-14T14:15:03;96433.19;;;31.28
19102;BMP280;9683;49.028;12.064;2022-08-14T14:17:31;96431.69;;;31.34
19102;BMP280;9683;49.028;12.064;2022-08-14T14:19:58;96424.72;;;31.44